sensor_id;sensor_type;location;lat;lon;timestamp;temperature;humidity
10390;DHT22;5241;47.830;12.972;2022-07-25T00:00:13;20.60;99.90
10390;DHT22;5241;47.830;12.972;2022-07-25T00:02:39;20.50;99.90
10390;DHT22;5241;47.830;12.972;2022-07-25T00:05:05;20.50;99.90
10390;DHT22;5241;47.830;12.972;2022-07-25T00:07:31;20.50;99.90
10390;DHT22;5241;47.830;12.972;2022-07-25T00:09:56;20.50;99.90
10390;DHT22;5241;47.830;12.972;2022-07-25T00:12:22;20.40;99.90
10390;DHT22;5241;47.830;12.972;2022-07-25T00:14:48;20.30;99.90
10390;DHT22;5241;47.830;12.972;2022-07-25T00:17:13;20.20;99.90
10390;DHT22;5241;47.830;12.972;2022-07-25T00:19:40;20.20;99.90
10390;DHT22;5241;47.830;12.972;2022-07-25T00:22:05;20.10;99.90
10390;DHT22;5241;47.830;12.972;2022-07-25T00:24:31;20.10;99.90
10390;DHT22;5241;47.830;12.972;2022-07-25T00:26:56;20.00;99.90
10390;DHT22;5241;47.830;12.972;2022-07-25T00:29:22;19.90;99.90
10390;DHT22;5241;47.830;12.972;2022-07-25T00:31:48;19.90;99.90
10390;DHT22;5241;47.830;12.972;2022-07-25T00:34:13;19.80;99.90
10390;DHT22;5241;47.830;12.972;2022-07-25T00:36:39;19.80;99.90
10390;DHT22;5241;47.830;12.972;2022-07-25T00:39:04;19.70;99.90
10390;DHT22;5241;47.830;12.972;2022-07-25T00:41:30;19.80;99.90
10390;DHT22;5241;47.830;12.972;2022-07-25T00:43:56;19.80;99.90
10390;DHT22;5241;47.830;12.972;2022-07-25T00:46:22;19.80;99.90
10390;DHT22;5241;47.830;12.972;2022-07-25T00:48:47;19.80;99.90
10390;DHT22;5241;47.830;12.972;2022-07-25T00:51:14;19.70;99.90
10390;DHT22;5241;47.830;12.972;2022-07-25T00:53:40;19.60;99.90
10390;DHT22;5241;47.830;12.972;2022-07-25T00:56:06;19.60;99.90
10390;DHT22;5241;47.830;12.972;2022-07-25T00:58:32;19.50;99.90
10390;DHT22;5241;47.830;12.972;2022-07-25T01:00:58;19.60;99.90
10390;DHT22;5241;47.830;12.972;2022-07-25T01:03:24;19.50;99.90
10390;DHT22;5241;47.830;12.972;2022-07-25T01:05:50;19.50;99.90
10390;DHT22;5241;47.830;12.972;2022-07-25T01:08:20;19.50;99.90
10390;DHT22;5241;47.830;12.972;2022-07-25T01:10:47;19.50;99.90
10390;DHT22;5241;47.830;12.972;2022-07-25T01:13:13;19.40;99.90
10390;DHT22;5241;47.830;12.972;2022-07-25T01:15:41;19.30;99.90
10390;DHT22;5241;47.830;12.972;2022-07-25T01:18:06;19.30;99.90
10390;DHT22;5241;47.830;12.972;2022-07-25T01:20:33;19.30;99.90
10390;DHT22;5241;47.830;12.972;2022-07-25T01:23:00;19.30;99.90
10390;DHT22;5241;47.830;12.972;2022-07-25T01:25:26;19.30;99.90
10390;DHT22;5241;47.830;12.972;2022-07-25T01:27:52;19.30;99.90
10390;DHT22;5241;47.830;12.972;2022-07-25T01:30:19;19.30;99.90
10390;DHT22;5241;47.830;12.972;2022-07-25T01:32:46;19.20;99.90
10390;DHT22;5241;47.830;12.972;2022-07-25T01:35:13;19.30;99.90
10390;DHT22;5241;47.830;12.972;2022-07-25T01:37:39;19.20;99.90
10390;DHT22;5241;47.830;12.972;2022-07-25T01:40:05;19.10;99.90
10390;DHT22;5241;47.830;12.972;2022-07-25T01:42:31;19.10;99.90
10390;DHT22;5241;47.830;12.972;2022-07-25T01:44:57;19.00;99.90
10390;DHT22;5241;47.830;12.972;2022-07-25T01:47:23;18.90;99.90
10390;DHT22;5241;47.830;12.972;2022-07-25T01:49:48;19.00;99.90
10390;DHT22;5241;47.830;12.972;2022-07-25T01:52:14;18.90;99.90
10390;DHT22;5241;47.830;12.972;2022-07-25T01:54:40;18.90;99.90
10390;DHT22;5241;47.830;12.972;2022-07-25T01:57:06;19.00;99.90
10390;DHT22;5241;47.830;12.972;2022-07-25T01:59:35;18.90;99.90
10390;DHT22;5241;47.830;12.972;2022-07-25T02:02:01;19.00;99.90
10390;DHT22;5241;47.830;12.972;2022-07-25T02:04:27;18.90;99.90
10390;DHT22;5241;47.830;12.972;2022-07-25T02:06:53;19.00;99.90
10390;DHT22;5241;47.830;12.972;2022-07-25T02:09:18;19.00;99.90
10390;DHT22;5241;47.830;12.972;2022-07-25T02:11:44;19.10;99.90
10390;DHT22;5241;47.830;12.972;2022-07-25T02:14:09;19.00;99.90
10390;DHT22;5241;47.830;12.972;2022-07-25T02:16:35;19.10;99.90
10390;DHT22;5241;47.830;12.972;2022-07-25T02:19:01;19.00;99.90
10390;DHT22;5241;47.830;12.972;2022-07-25T02:21:26;19.10;99.90
10390;DHT22;5241;47.830;12.972;2022-07-25T02:23:52;19.00;99.90
10390;DHT22;5241;47.830;12.972;2022-07-25T02:26:17;19.00;99.90
10390;DHT22;5241;47.830;12.972;2022-07-25T02:28:43;19.10;99.90
10390;DHT22;5241;47.830;12.972;2022-07-25T02:31:08;19.10;99.90
10390;DHT22;5241;47.830;12.972;2022-07-25T02:33:35;19.10;99.90
10390;DHT22;5241;47.830;12.972;2022-07-25T02:36:00;19.10;99.90
10390;DHT22;5241;47.830;12.972;2022-07-25T02:38:26;19.10;99.90
10390;DHT22;5241;47.830;12.972;2022-07-25T02:40:52;19.10;99.90
10390;DHT22;5241;47.830;12.972;2022-07-25T02:43:18;19.20;99.90
10390;DHT22;5241;47.830;12.972;2022-07-25T02:45:44;19.20;99.90
10390;DHT22;5241;47.830;12.972;2022-07-25T02:48:10;19.20;99.90
10390;DHT22;5241;47.830;12.972;2022-07-25T02:50:36;19.20;99.90
10390;DHT22;5241;47.830;12.972;2022-07-25T02:53:02;19.30;99.90
10390;DHT22;5241;47.830;12.972;2022-07-25T02:55:29;19.20;99.90
10390;DHT22;5241;47.830;12.972;2022-07-25T02:57:55;19.10;99.90
10390;DHT22;5241;47.830;12.972;2022-07-25T03:00:20;19.10;99.90
10390;DHT22;5241;47.830;12.972;2022-07-25T03:02:46;19.10;99.90
10390;DHT22;5241;47.830;12.972;2022-07-25T03:05:13;19.10;99.90
10390;DHT22;5241;47.830;12.972;2022-07-25T03:07:40;19.00;99.90
10390;DHT22;5241;47.830;12.972;2022-07-25T03:10:07;18.90;99.90
10390;DHT22;5241;47.830;12.972;2022-07-25T03:12:33;18.90;99.90
10390;DHT22;5241;47.830;12.972;2022-07-25T03:14:59;18.90;99.90
10390;DHT22;5241;47.830;12.972;2022-07-25T03:17:26;19.00;99.90
10390;DHT22;5241;47.830;12.972;2022-07-25T03:19:53;19.00;99.90
10390;DHT22;5241;47.830;12.972;2022-07-25T03:22:19;19.00;99.90
10390;DHT22;5241;47.830;12.972;2022-07-25T03:24:44;19.00;99.90
10390;DHT22;5241;47.830;12.972;2022-07-25T03:27:10;19.00;99.90
10390;DHT22;5241;47.830;12.972;2022-07-25T03:29:35;18.90;99.90
10390;DHT22;5241;47.830;12.972;2022-07-25T03:32:01;18.80;99.90
10390;DHT22;5241;47.830;12.972;2022-07-25T03:34:27;18.80;99.90
10390;DHT22;5241;47.830;12.972;2022-07-25T03:36:52;18.80;99.90
10390;DHT22;5241;47.830;12.972;2022-07-25T03:39:18;18.80;99.90
10390;DHT22;5241;47.830;12.972;2022-07-25T03:41:45;18.80;99.90
10390;DHT22;5241;47.830;12.972;2022-07-25T03:44:11;18.80;99.90
10390;DHT22;5241;47.830;12.972;2022-07-25T03:46:36;18.80;99.90
10390;DHT22;5241;47.830;12.972;2022-07-25T03:49:02;18.80;99.90
10390;DHT22;5241;47.830;12.972;2022-07-25T03:51:28;18.80;99.90
10390;DHT22;5241;47.830;12.972;2022-07-25T03:53:53;18.80;99.90
10390;DHT22;5241;47.830;12.972;2022-07-25T03:56:29;18.80;99.90
10390;DHT22;5241;47.830;12.972;2022-07-25T03:58:55;18.80;99.90
10390;DHT22;5241;47.830;12.972;2022-07-25T04:01:21;18.80;99.90
10390;DHT22;5241;47.830;12.972;2022-07-25T04:03:46;18.80;99.90
10390;DHT22;5241;47.830;12.972;2022-07-25T04:06:12;19.00;99.90
10390;DHT22;5241;47.830;12.972;2022-07-25T04:08:37;19.00;99.90
10390;DHT22;5241;47.830;12.972;2022-07-25T04:11:03;19.20;99.90
10390;DHT22;5241;47.830;12.972;2022-07-25T04:13:29;19.20;99.90
10390;DHT22;5241;47.830;12.972;2022-07-25T04:15:55;19.30;99.90
10390;DHT22;5241;47.830;12.972;2022-07-25T04:18:20;19.30;99.90
10390;DHT22;5241;47.830;12.972;2022-07-25T04:20:46;19.30;99.90
10390;DHT22;5241;47.830;12.972;2022-07-25T04:23:11;19.40;99.90
10390;DHT22;5241;47.830;12.972;2022-07-25T04:25:37;19.50;99.90
10390;DHT22;5241;47.830;12.972;2022-07-25T04:28:03;19.60;99.90
10390;DHT22;5241;47.830;12.972;2022-07-25T04:30:28;19.70;99.90
10390;DHT22;5241;47.830;12.972;2022-07-25T04:32:54;19.80;99.90
10390;DHT22;5241;47.830;12.972;2022-07-25T04:35:19;19.90;99.90
10390;DHT22;5241;47.830;12.972;2022-07-25T04:37:45;19.90;99.90
10390;DHT22;5241;47.830;12.972;2022-07-25T04:40:11;20.00;99.90
10390;DHT22;5241;47.830;12.972;2022-07-25T04:42:37;20.10;99.90
10390;DHT22;5241;47.830;12.972;2022-07-25T04:45:02;20.10;99.90
10390;DHT22;5241;47.830;12.972;2022-07-25T04:47:29;20.20;99.90
10390;DHT22;5241;47.830;12.972;2022-07-25T04:49:54;20.20;99.90
10390;DHT22;5241;47.830;12.972;2022-07-25T04:52:20;20.30;99.90
10390;DHT22;5241;47.830;12.972;2022-07-25T04:54:45;20.50;99.90
10390;DHT22;5241;47.830;12.972;2022-07-25T04:57:11;20.50;99.90
10390;DHT22;5241;47.830;12.972;2022-07-25T04:59:36;20.60;99.90
10390;DHT22;5241;47.830;12.972;2022-07-25T05:02:02;20.70;99.90
10390;DHT22;5241;47.830;12.972;2022-07-25T05:04:28;20.80;99.90
10390;DHT22;5241;47.830;12.972;2022-07-25T05:06:54;20.90;99.90
10390;DHT22;5241;47.830;12.972;2022-07-25T05:09:20;21.00;99.90
10390;DHT22;5241;47.830;12.972;2022-07-25T05:11:45;21.10;99.90
10390;DHT22;5241;47.830;12.972;2022-07-25T05:14:11;21.30;99.90
10390;DHT22;5241;47.830;12.972;2022-07-25T05:16:36;21.30;99.90
10390;DHT22;5241;47.830;12.972;2022-07-25T05:19:02;21.40;99.90
10390;DHT22;5241;47.830;12.972;2022-07-25T05:21:28;21.50;99.90
10390;DHT22;5241;47.830;12.972;2022-07-25T05:23:53;21.60;99.90
10390;DHT22;5241;47.830;12.972;2022-07-25T05:26:19;21.60;99.90
10390;DHT22;5241;47.830;12.972;2022-07-25T05:28:44;21.80;99.90
10390;DHT22;5241;47.830;12.972;2022-07-25T05:31:10;22.00;99.90
10390;DHT22;5241;47.830;12.972;2022-07-25T05:33:36;22.00;99.90
10390;DHT22;5241;47.830;12.972;2022-07-25T05:36:01;22.30;99.90
10390;DHT22;5241;47.830;12.972;2022-07-25T05:38:28;22.40;99.90
10390;DHT22;5241;47.830;12.972;2022-07-25T05:40:54;22.70;99.90
10390;DHT22;5241;47.830;12.972;2022-07-25T05:43:19;23.00;99.90
10390;DHT22;5241;47.830;12.972;2022-07-25T05:45:45;23.50;99.90
10390;DHT22;5241;47.830;12.972;2022-07-25T05:48:12;24.00;99.90
10390;DHT22;5241;47.830;12.972;2022-07-25T05:50:38;24.30;99.90
10390;DHT22;5241;47.830;12.972;2022-07-25T05:53:04;24.80;99.90
10390;DHT22;5241;47.830;12.972;2022-07-25T05:55:29;25.40;99.90
10390;DHT22;5241;47.830;12.972;2022-07-25T05:57:55;25.90;99.90
10390;DHT22;5241;47.830;12.972;2022-07-25T06:00:21;26.30;99.90
10390;DHT22;5241;47.830;12.972;2022-07-25T06:02:46;26.30;99.90
10390;DHT22;5241;47.830;12.972;2022-07-25T06:05:12;26.50;99.90
10390;DHT22;5241;47.830;12.972;2022-07-25T06:07:38;26.70;99.90
10390;DHT22;5241;47.830;12.972;2022-07-25T06:10:04;26.80;99.90
10390;DHT22;5241;47.830;12.972;2022-07-25T06:12:30;26.90;99.80
10390;DHT22;5241;47.830;12.972;2022-07-25T06:15:00;27.30;99.30
10390;DHT22;5241;47.830;12.972;2022-07-25T06:17:26;27.40;98.20
10390;DHT22;5241;47.830;12.972;2022-07-25T06:19:52;27.50;97.50
10390;DHT22;5241;47.830;12.972;2022-07-25T06:22:17;27.70;97.20
10390;DHT22;5241;47.830;12.972;2022-07-25T06:24:46;27.80;96.60
10390;DHT22;5241;47.830;12.972;2022-07-25T06:27:11;28.40;94.40
10390;DHT22;5241;47.830;12.972;2022-07-25T06:29:37;28.60;94.00
10390;DHT22;5241;47.830;12.972;2022-07-25T06:32:03;28.60;93.70
10390;DHT22;5241;47.830;12.972;2022-07-25T06:34:29;28.90;93.00
10390;DHT22;5241;47.830;12.972;2022-07-25T06:36:55;29.50;91.30
10390;DHT22;5241;47.830;12.972;2022-07-25T06:39:22;29.60;90.50
10390;DHT22;5241;47.830;12.972;2022-07-25T06:41:47;29.90;88.80
10390;DHT22;5241;47.830;12.972;2022-07-25T06:44:13;30.20;86.30
10390;DHT22;5241;47.830;12.972;2022-07-25T06:46:39;30.10;84.60
10390;DHT22;5241;47.830;12.972;2022-07-25T06:49:05;29.70;85.60
10390;DHT22;5241;47.830;12.972;2022-07-25T06:51:31;29.80;85.10
10390;DHT22;5241;47.830;12.972;2022-07-25T06:53:57;29.80;83.70
10390;DHT22;5241;47.830;12.972;2022-07-25T06:56:22;30.00;83.50
10390;DHT22;5241;47.830;12.972;2022-07-25T06:58:48;30.30;82.50
10390;DHT22;5241;47.830;12.972;2022-07-25T07:01:13;30.10;82.60
10390;DHT22;5241;47.830;12.972;2022-07-25T07:03:39;30.00;83.60
10390;DHT22;5241;47.830;12.972;2022-07-25T07:06:07;30.30;82.10
10390;DHT22;5241;47.830;12.972;2022-07-25T07:08:34;30.40;81.90
10390;DHT22;5241;47.830;12.972;2022-07-25T07:11:00;30.60;81.00
10390;DHT22;5241;47.830;12.972;2022-07-25T07:13:26;30.40;79.50
10390;DHT22;5241;47.830;12.972;2022-07-25T07:15:51;29.90;81.80
10390;DHT22;5241;47.830;12.972;2022-07-25T07:18:18;30.10;82.20
10390;DHT22;5241;47.830;12.972;2022-07-25T07:20:44;30.50;82.30
10390;DHT22;5241;47.830;12.972;2022-07-25T07:23:10;30.70;79.10
10390;DHT22;5241;47.830;12.972;2022-07-25T07:25:36;30.50;80.60
10390;DHT22;5241;47.830;12.972;2022-07-25T07:28:02;30.60;81.00
10390;DHT22;5241;47.830;12.972;2022-07-25T07:30:28;31.20;81.00
10390;DHT22;5241;47.830;12.972;2022-07-25T07:32:54;31.50;78.70
10390;DHT22;5241;47.830;12.972;2022-07-25T07:35:19;31.70;77.40
10390;DHT22;5241;47.830;12.972;2022-07-25T07:37:45;31.50;76.90
10390;DHT22;5241;47.830;12.972;2022-07-25T07:40:12;32.00;76.00
10390;DHT22;5241;47.830;12.972;2022-07-25T07:42:43;31.90;75.30
10390;DHT22;5241;47.830;12.972;2022-07-25T07:45:12;32.10;73.50
10390;DHT22;5241;47.830;12.972;2022-07-25T07:47:38;31.60;75.70
10390;DHT22;5241;47.830;12.972;2022-07-25T07:50:05;30.60;78.70
10390;DHT22;5241;47.830;12.972;2022-07-25T07:52:31;31.90;76.10
10390;DHT22;5241;47.830;12.972;2022-07-25T07:54:56;32.60;73.20
10390;DHT22;5241;47.830;12.972;2022-07-25T07:57:41;32.60;72.80
10390;DHT22;5241;47.830;12.972;2022-07-25T08:00:06;32.00;72.30
10390;DHT22;5241;47.830;12.972;2022-07-25T08:02:32;32.20;73.40
10390;DHT22;5241;47.830;12.972;2022-07-25T08:05:06;32.00;74.10
10390;DHT22;5241;47.830;12.972;2022-07-25T08:07:32;31.80;75.70
10390;DHT22;5241;47.830;12.972;2022-07-25T08:09:58;32.30;74.40
10390;DHT22;5241;47.830;12.972;2022-07-25T08:12:23;32.80;71.50
10390;DHT22;5241;47.830;12.972;2022-07-25T08:14:49;32.50;75.00
10390;DHT22;5241;47.830;12.972;2022-07-25T08:17:14;33.00;72.90
10390;DHT22;5241;47.830;12.972;2022-07-25T08:19:40;33.30;69.90
10390;DHT22;5241;47.830;12.972;2022-07-25T08:22:05;33.10;70.80
10390;DHT22;5241;47.830;12.972;2022-07-25T08:24:31;33.20;70.70
10390;DHT22;5241;47.830;12.972;2022-07-25T08:26:56;32.60;72.70
10390;DHT22;5241;47.830;12.972;2022-07-25T08:29:22;32.80;72.80
10390;DHT22;5241;47.830;12.972;2022-07-25T08:31:47;33.70;68.20
10390;DHT22;5241;47.830;12.972;2022-07-25T08:34:13;32.60;72.50
10390;DHT22;5241;47.830;12.972;2022-07-25T08:36:38;32.60;71.60
10390;DHT22;5241;47.830;12.972;2022-07-25T08:39:04;32.50;72.30
10390;DHT22;5241;47.830;12.972;2022-07-25T08:41:32;33.50;69.00
10390;DHT22;5241;47.830;12.972;2022-07-25T08:43:57;34.00;67.20
10390;DHT22;5241;47.830;12.972;2022-07-25T08:46:23;32.90;69.10
10390;DHT22;5241;47.830;12.972;2022-07-25T08:48:50;32.60;70.60
10390;DHT22;5241;47.830;12.972;2022-07-25T08:51:16;33.50;68.20
10390;DHT22;5241;47.830;12.972;2022-07-25T08:53:43;34.00;67.00
10390;DHT22;5241;47.830;12.972;2022-07-25T08:56:09;34.20;66.10
10390;DHT22;5241;47.830;12.972;2022-07-25T08:58:35;34.20;66.30
10390;DHT22;5241;47.830;12.972;2022-07-25T09:01:01;34.40;65.10
10390;DHT22;5241;47.830;12.972;2022-07-25T09:03:26;34.40;66.40
10390;DHT22;5241;47.830;12.972;2022-07-25T09:05:52;34.50;65.80
10390;DHT22;5241;47.830;12.972;2022-07-25T09:08:17;34.20;63.00
10390;DHT22;5241;47.830;12.972;2022-07-25T09:10:50;33.00;67.10
10390;DHT22;5241;47.830;12.972;2022-07-25T09:13:18;34.10;66.70
10390;DHT22;5241;47.830;12.972;2022-07-25T09:15:52;34.60;61.20
10390;DHT22;5241;47.830;12.972;2022-07-25T09:18:23;34.90;62.60
10390;DHT22;5241;47.830;12.972;2022-07-25T09:20:51;35.20;60.20
10390;DHT22;5241;47.830;12.972;2022-07-25T09:26:06;34.60;61.90
10390;DHT22;5241;47.830;12.972;2022-07-25T09:28:56;34.90;62.40
10390;DHT22;5241;47.830;12.972;2022-07-25T09:31:31;34.30;62.70
10390;DHT22;5241;47.830;12.972;2022-07-25T09:33:57;34.50;64.90
10390;DHT22;5241;47.830;12.972;2022-07-25T09:36:24;34.30;63.10
10390;DHT22;5241;47.830;12.972;2022-07-25T09:38:55;33.70;64.00
10390;DHT22;5241;47.830;12.972;2022-07-25T09:41:21;33.70;63.90
10390;DHT22;5241;47.830;12.972;2022-07-25T09:43:47;34.60;62.90
10390;DHT22;5241;47.830;12.972;2022-07-25T09:46:13;33.90;64.00
10390;DHT22;5241;47.830;12.972;2022-07-25T09:48:43;33.80;64.60
10390;DHT22;5241;47.830;12.972;2022-07-25T09:51:09;34.30;65.40
10390;DHT22;5241;47.830;12.972;2022-07-25T09:53:34;34.80;62.80
10390;DHT22;5241;47.830;12.972;2022-07-25T09:56:00;34.20;63.70
10390;DHT22;5241;47.830;12.972;2022-07-25T09:58:26;34.80;63.20
10390;DHT22;5241;47.830;12.972;2022-07-25T10:00:56;34.30;63.30
10390;DHT22;5241;47.830;12.972;2022-07-25T10:03:47;34.10;62.70
10390;DHT22;5241;47.830;12.972;2022-07-25T10:06:39;34.70;60.20
10390;DHT22;5241;47.830;12.972;2022-07-25T10:09:12;34.60;61.60
10390;DHT22;5241;47.830;12.972;2022-07-25T10:11:38;35.00;61.50
10390;DHT22;5241;47.830;12.972;2022-07-25T10:14:11;35.00;60.60
10390;DHT22;5241;47.830;12.972;2022-07-25T10:16:47;34.90;60.00
10390;DHT22;5241;47.830;12.972;2022-07-25T10:19:13;35.30;59.80
10390;DHT22;5241;47.830;12.972;2022-07-25T10:21:38;35.10;61.50
10390;DHT22;5241;47.830;12.972;2022-07-25T10:24:07;35.30;59.40
10390;DHT22;5241;47.830;12.972;2022-07-25T10:26:37;35.10;59.30
10390;DHT22;5241;47.830;12.972;2022-07-25T10:29:08;35.40;61.00
10390;DHT22;5241;47.830;12.972;2022-07-25T10:31:36;35.60;59.30
10390;DHT22;5241;47.830;12.972;2022-07-25T10:34:05;35.80;58.60
10390;DHT22;5241;47.830;12.972;2022-07-25T10:36:43;35.50;59.20
10390;DHT22;5241;47.830;12.972;2022-07-25T10:39:12;35.40;59.40
10390;DHT22;5241;47.830;12.972;2022-07-25T10:41:43;35.70;59.40
10390;DHT22;5241;47.830;12.972;2022-07-25T10:44:13;35.70;59.20
10390;DHT22;5241;47.830;12.972;2022-07-25T10:46:39;36.30;58.00
10390;DHT22;5241;47.830;12.972;2022-07-25T10:49:20;36.20;59.20
10390;DHT22;5241;47.830;12.972;2022-07-25T10:51:58;36.60;57.40
10390;DHT22;5241;47.830;12.972;2022-07-25T10:54:23;36.30;58.70
10390;DHT22;5241;47.830;12.972;2022-07-25T10:56:55;36.30;58.80
10390;DHT22;5241;47.830;12.972;2022-07-25T10:59:31;35.70;59.40
10390;DHT22;5241;47.830;12.972;2022-07-25T11:01:57;36.10;58.20
10390;DHT22;5241;47.830;12.972;2022-07-25T11:04:23;35.70;59.50
10390;DHT22;5241;47.830;12.972;2022-07-25T11:06:49;36.10;58.00
10390;DHT22;5241;47.830;12.972;2022-07-25T11:09:19;36.10;56.80
10390;DHT22;5241;47.830;12.972;2022-07-25T11:11:49;36.20;57.90
10390;DHT22;5241;47.830;12.972;2022-07-25T11:14:17;36.60;56.90
10390;DHT22;5241;47.830;12.972;2022-07-25T11:16:50;36.50;58.60
10390;DHT22;5241;47.830;12.972;2022-07-25T11:21:57;36.70;57.60
10390;DHT22;5241;47.830;12.972;2022-07-25T11:24:36;36.60;56.50
10390;DHT22;5241;47.830;12.972;2022-07-25T11:27:03;37.70;56.60
10390;DHT22;5241;47.830;12.972;2022-07-25T11:29:29;37.40;52.30
10390;DHT22;5241;47.830;12.972;2022-07-25T11:31:57;37.20;52.10
10390;DHT22;5241;47.830;12.972;2022-07-25T11:34:26;36.80;54.60
10390;DHT22;5241;47.830;12.972;2022-07-25T11:36:54;36.90;56.40
10390;DHT22;5241;47.830;12.972;2022-07-25T11:39:23;37.10;56.40
10390;DHT22;5241;47.830;12.972;2022-07-25T11:42:03;37.10;55.10
10390;DHT22;5241;47.830;12.972;2022-07-25T11:44:35;37.50;53.90
10390;DHT22;5241;47.830;12.972;2022-07-25T11:47:06;38.00;53.10
10390;DHT22;5241;47.830;12.972;2022-07-25T11:49:44;37.70;54.30
10390;DHT22;5241;47.830;12.972;2022-07-25T11:52:25;37.30;51.70
10390;DHT22;5241;47.830;12.972;2022-07-25T11:54:58;36.90;51.80
10390;DHT22;5241;47.830;12.972;2022-07-25T11:57:30;36.80;49.80
10390;DHT22;5241;47.830;12.972;2022-07-25T11:59:56;36.60;49.70
10390;DHT22;5241;47.830;12.972;2022-07-25T12:02:25;36.00;50.10
10390;DHT22;5241;47.830;12.972;2022-07-25T12:05:01;36.40;48.60
10390;DHT22;5241;47.830;12.972;2022-07-25T12:07:41;37.00;48.90
10390;DHT22;5241;47.830;12.972;2022-07-25T12:10:53;36.80;48.50
10390;DHT22;5241;47.830;12.972;2022-07-25T12:12:55;36.30;49.10
10390;DHT22;5241;47.830;12.972;2022-07-25T12:15:22;37.10;47.90
10390;DHT22;5241;47.830;12.972;2022-07-25T12:17:49;37.00;47.20
10390;DHT22;5241;47.830;12.972;2022-07-25T12:20:20;36.60;48.10
10390;DHT22;5241;47.830;12.972;2022-07-25T12:22:48;36.50;49.40
10390;DHT22;5241;47.830;12.972;2022-07-25T12:25:15;36.60;48.90
10390;DHT22;5241;47.830;12.972;2022-07-25T12:27:40;36.80;48.10
10390;DHT22;5241;47.830;12.972;2022-07-25T12:30:08;36.50;48.90
10390;DHT22;5241;47.830;12.972;2022-07-25T12:32:34;36.80;48.40
10390;DHT22;5241;47.830;12.972;2022-07-25T12:35:00;36.80;47.90
10390;DHT22;5241;47.830;12.972;2022-07-25T12:37:26;36.50;49.00
10390;DHT22;5241;47.830;12.972;2022-07-25T12:39:52;36.60;49.60
10390;DHT22;5241;47.830;12.972;2022-07-25T12:42:18;36.90;47.70
10390;DHT22;5241;47.830;12.972;2022-07-25T12:44:44;37.30;48.00
10390;DHT22;5241;47.830;12.972;2022-07-25T12:47:09;37.20;47.70
10390;DHT22;5241;47.830;12.972;2022-07-25T12:49:35;37.30;47.10
10390;DHT22;5241;47.830;12.972;2022-07-25T12:52:00;36.80;48.10
10390;DHT22;5241;47.830;12.972;2022-07-25T12:54:26;36.80;48.70
10390;DHT22;5241;47.830;12.972;2022-07-25T12:56:52;37.00;49.20
10390;DHT22;5241;47.830;12.972;2022-07-25T12:59:17;36.80;48.00
10390;DHT22;5241;47.830;12.972;2022-07-25T13:01:43;37.30;47.60
10390;DHT22;5241;47.830;12.972;2022-07-25T13:04:08;37.50;48.60
10390;DHT22;5241;47.830;12.972;2022-07-25T13:06:35;36.90;48.30
10390;DHT22;5241;47.830;12.972;2022-07-25T13:09:00;37.00;49.00
10390;DHT22;5241;47.830;12.972;2022-07-25T13:11:26;37.10;49.10
10390;DHT22;5241;47.830;12.972;2022-07-25T13:13:51;37.50;47.50
10390;DHT22;5241;47.830;12.972;2022-07-25T13:16:17;37.40;47.60
10390;DHT22;5241;47.830;12.972;2022-07-25T13:18:43;37.30;48.50
10390;DHT22;5241;47.830;12.972;2022-07-25T13:21:09;37.50;46.70
10390;DHT22;5241;47.830;12.972;2022-07-25T13:23:35;37.70;47.60
10390;DHT22;5241;47.830;12.972;2022-07-25T13:26:00;37.30;46.70
10390;DHT22;5241;47.830;12.972;2022-07-25T13:28:26;37.50;47.50
10390;DHT22;5241;47.830;12.972;2022-07-25T13:30:52;37.60;46.90
10390;DHT22;5241;47.830;12.972;2022-07-25T13:33:18;37.90;46.20
10390;DHT22;5241;47.830;12.972;2022-07-25T13:35:43;37.60;46.10
10390;DHT22;5241;47.830;12.972;2022-07-25T13:38:09;37.50;46.10
10390;DHT22;5241;47.830;12.972;2022-07-25T13:40:36;37.10;47.10
10390;DHT22;5241;47.830;12.972;2022-07-25T13:43:09;37.30;46.60
10390;DHT22;5241;47.830;12.972;2022-07-25T13:45:35;37.80;46.00
10390;DHT22;5241;47.830;12.972;2022-07-25T13:48:01;38.20;46.90
10390;DHT22;5241;47.830;12.972;2022-07-25T13:50:27;38.90;44.90
10390;DHT22;5241;47.830;12.972;2022-07-25T13:52:52;38.60;44.50
10390;DHT22;5241;47.830;12.972;2022-07-25T13:55:21;38.20;45.10
10390;DHT22;5241;47.830;12.972;2022-07-25T13:57:47;37.80;45.20
10390;DHT22;5241;47.830;12.972;2022-07-25T14:00:13;38.70;44.50
10390;DHT22;5241;47.830;12.972;2022-07-25T14:02:39;38.30;45.60
10390;DHT22;5241;47.830;12.972;2022-07-25T14:05:05;38.70;44.40
10390;DHT22;5241;47.830;12.972;2022-07-25T14:07:32;39.50;42.50
10390;DHT22;5241;47.830;12.972;2022-07-25T14:09:58;39.70;41.30
10390;DHT22;5241;47.830;12.972;2022-07-25T14:12:24;39.30;42.70
10390;DHT22;5241;47.830;12.972;2022-07-25T14:14:49;39.00;42.30
10390;DHT22;5241;47.830;12.972;2022-07-25T14:17:15;39.20;43.00
10390;DHT22;5241;47.830;12.972;2022-07-25T14:19:41;38.30;44.10
10390;DHT22;5241;47.830;12.972;2022-07-25T14:22:07;38.70;43.00
10390;DHT22;5241;47.830;12.972;2022-07-25T14:24:32;39.10;42.30
10390;DHT22;5241;47.830;12.972;2022-07-25T14:26:58;39.40;42.90
10390;DHT22;5241;47.830;12.972;2022-07-25T14:29:24;39.90;42.00
10390;DHT22;5241;47.830;12.972;2022-07-25T14:31:50;39.60;41.90
10390;DHT22;5241;47.830;12.972;2022-07-25T14:34:16;40.00;42.50
10390;DHT22;5241;47.830;12.972;2022-07-25T14:36:42;39.30;42.70
10390;DHT22;5241;47.830;12.972;2022-07-25T14:39:09;38.80;43.00
10390;DHT22;5241;47.830;12.972;2022-07-25T14:41:34;38.60;43.20
10390;DHT22;5241;47.830;12.972;2022-07-25T14:44:00;39.30;42.00
10390;DHT22;5241;47.830;12.972;2022-07-25T14:46:26;39.30;42.50
10390;DHT22;5241;47.830;12.972;2022-07-25T14:48:51;38.80;42.80
10390;DHT22;5241;47.830;12.972;2022-07-25T14:51:18;38.80;41.50
10390;DHT22;5241;47.830;12.972;2022-07-25T14:53:44;39.20;41.80
10390;DHT22;5241;47.830;12.972;2022-07-25T14:56:10;38.40;41.80
10390;DHT22;5241;47.830;12.972;2022-07-25T14:58:37;38.20;42.70
10390;DHT22;5241;47.830;12.972;2022-07-25T15:01:03;38.30;41.50
10390;DHT22;5241;47.830;12.972;2022-07-25T15:03:29;39.20;41.30
10390;DHT22;5241;47.830;12.972;2022-07-25T15:05:55;39.90;40.10
10390;DHT22;5241;47.830;12.972;2022-07-25T15:08:20;39.80;39.90
10390;DHT22;5241;47.830;12.972;2022-07-25T15:10:46;39.70;40.50
10390;DHT22;5241;47.830;12.972;2022-07-25T15:13:12;39.50;40.40
10390;DHT22;5241;47.830;12.972;2022-07-25T15:15:37;38.70;42.40
10390;DHT22;5241;47.830;12.972;2022-07-25T15:18:03;38.80;42.00
10390;DHT22;5241;47.830;12.972;2022-07-25T15:20:28;38.50;41.60
10390;DHT22;5241;47.830;12.972;2022-07-25T15:22:54;38.90;41.70
10390;DHT22;5241;47.830;12.972;2022-07-25T15:25:20;39.00;41.60
10390;DHT22;5241;47.830;12.972;2022-07-25T15:27:45;39.30;40.50
10390;DHT22;5241;47.830;12.972;2022-07-25T15:30:11;39.40;40.80
10390;DHT22;5241;47.830;12.972;2022-07-25T15:32:37;39.10;40.70